Time;durP1;ratioP1;P1;durP2;ratioP2;P2;SDS_P1;SDS_P2;PMS_P1;PMS_P2;Temp;Humidity;BMP_temperature;BMP_pressure;BME280_temperature;BME280_humidity;BME280_pressure;Samples;Min_cycle;Max_cycle;Signal;HPM_P1;HPM_P2
2023/01/30 05:31:38;;;;;;;;;27.50;23.00;;;;;6.61;71.64;102097.81;1435772;25;46035;-78
2023/01/30 05:34:03;;;;;;;;;33.00;27.50;;;;;6.62;71.16;102094.25;5061400;28;45619;-77
2023/01/30 05:36:28;;;;;;;;;24.50;24.25;;;;;6.81;71.42;102117.16;5066897;28;45724;-77
2023/01/30 05:38:54;;;;;;;;;30.50;27.00;;;;;6.77;71.58;102115.44;5043241;28;45872;-75
2023/01/30 05:41:19;;;;;;;;;26.75;21.25;;;;;6.77;71.35;102123.44;5056953;28;45268;-76
2023/01/30 05:43:49;;;;;;;;;25.75;24.75;;;;;6.72;72.04;102106.56;5042235;28;45464;-76
2023/01/30 05:46:14;;;;;;;;;28.75;23.50;;;;;6.78;71.16;102121.66;5068246;28;45330;-76
2023/01/30 05:48:39;;;;;;;;;27.00;23.75;;;;;6.72;72.02;102108.38;5056551;28;45560;-77
2023/01/30 05:51:05;;;;;;;;;30.75;25.25;;;;;6.77;72.00;102114.56;5056674;28;46179;-77
2023/01/30 05:53:35;;;;;;;;;27.75;23.25;;;;;6.65;71.71;102095.97;5054932;28;45420;-76
2023/01/30 05:56:04;;;;;;;;;25.00;18.00;;;;;6.67;72.33;102094.19;5054231;28;45433;-77
2023/01/30 05:58:30;;;;;;;;;28.50;26.00;;;;;6.82;72.11;102118.06;5035955;28;46107;-77
2023/01/30 06:01:02;;;;;;;;;24.50;24.50;;;;;6.70;72.74;102096.84;5054109;28;46177;-77
2023/01/30 06:03:28;;;;;;;;;27.75;24.00;;;;;6.65;72.43;102074.66;5035849;28;45534;-75
2023/01/30 06:05:54;;;;;;;;;31.25;23.25;;;;;6.90;72.38;102094.00;5064925;28;45476;-75
2023/01/30 06:08:19;;;;;;;;;25.75;21.50;;;;;6.87;72.72;102091.38;5075424;28;45624;-77
2023/01/30 06:10:44;;;;;;;;;27.00;23.00;;;;;6.97;73.45;102101.94;5077935;28;45306;-78
2023/01/30 06:13:10;;;;;;;;;19.75;18.75;;;;;7.04;73.10;102108.09;5079590;28;45250;-75
2023/01/30 06:15:36;;;;;;;;;28.75;21.50;;;;;6.97;72.67;102088.63;5077383;28;45304;-77
2023/01/30 06:18:01;;;;;;;;;25.00;19.50;;;;;7.00;72.68;102080.56;5058173;28;45805;-77
2023/01/30 06:20:26;;;;;;;;;24.50;22.75;;;;;6.83;72.94;102053.19;5058188;28;48040;-77
2023/01/30 06:22:52;;;;;;;;;22.75;22.25;;;;;7.12;72.90;102088.47;5054273;28;45273;-76
2023/01/30 06:25:17;;;;;;;;;25.75;20.50;;;;;7.15;72.92;102092.84;5039660;28;45260;-76
2023/01/30 06:27:44;;;;;;;;;27.00;21.75;;;;;6.99;73.69;102078.78;5071278;28;45433;-78
2023/01/30 06:30:10;;;;;;;;;26.25;19.75;;;;;6.99;73.25;102070.78;5038682;28;47259;-77
2023/01/30 06:32:36;;;;;;;;;28.50;20.75;;;;;6.89;73.28;102047.78;5037558;28;45368;-79
2023/01/30 06:35:02;;;;;;;;;26.75;20.25;;;;;6.89;73.65;102058.44;5056336;28;45522;-79
2023/01/30 06:37:28;;;;;;;;;31.25;26.00;;;;;6.91;73.62;102077.97;5070593;28;45648;-76
2023/01/30 06:39:53;;;;;;;;;19.00;17.50;;;;;7.05;73.90;102109.88;5056010;28;46172;-78
2023/01/30 06:42:18;;;;;;;;;18.75;18.50;;;;;6.95;73.66;102095.72;5055483;28;45369;-76
2023/01/30 06:44:44;;;;;;;;;17.50;17.50;;;;;7.02;74.05;102120.56;5068181;28;46016;-76
2023/01/30 06:47:09;;;;;;;;;24.00;22.00;;;;;6.95;73.75;102106.41;5059782;28;45421;-76
2023/01/30 06:49:34;;;;;;;;;32.50;26.00;;;;;6.77;73.92;102075.47;5037476;28;47512;-75
2023/01/30 06:52:00;;;;;;;;;18.75;18.75;;;;;7.01;73.73;102111.66;5038074;28;45397;-78
2023/01/30 06:54:25;;;;;;;;;28.50;18.75;;;;;7.10;73.81;102142.69;5037197;28;45461;-77
2023/01/30 06:56:51;;;;;;;;;18.00;16.25;;;;;7.16;73.80;102147.97;5065486;28;46560;-77
2023/01/30 06:59:16;;;;;;;;;20.25;18.00;;;;;7.14;73.74;102128.44;5059835;28;47014;-76
2023/01/30 07:01:41;;;;;;;;;21.25;17.75;;;;;7.27;73.87;102151.41;5042561;28;45351;-74
2023/01/30 07:04:07;;;;;;;;;23.00;21.50;;;;;7.25;73.39;102137.19;5057304;28;45235;-77
2023/01/30 07:06:35;;;;;;;;;20.00;17.75;;;;;7.39;73.31;102156.66;5056067;28;45532;-76
2023/01/30 07:09:01;;;;;;;;;20.50;20.50;;;;;7.47;73.48;102159.22;5037614;28;48310;-78
2023/01/30 07:11:27;;;;;;;;;16.75;15.00;;;;;7.55;73.10;102160.91;5056199;28;45388;-79
2023/01/30 07:13:52;;;;;;;;;18.75;16.50;;;;;7.50;72.90;102143.16;5056298;28;45392;-80
2023/01/30 07:16:18;;;;;;;;;21.25;19.25;;;;;7.52;73.33;102162.72;5037545;28;47027;-80
2023/01/30 07:18:43;;;;;;;;;22.50;21.00;;;;;7.47;73.15;102165.44;5037717;28;47178;-78
2023/01/30 07:21:08;;;;;;;;;26.00;19.50;;;;;7.62;73.23;102171.50;5039965;28;46160;-77
2023/01/30 07:23:34;;;;;;;;;24.00;19.75;;;;;7.65;73.03;102179.50;5048164;28;45430;-78
2023/01/30 07:26:03;;;;;;;;;15.75;15.75;;;;;7.49;74.19;102170.75;5036939;28;46050;-79
2023/01/30 07:28:29;;;;;;;;;19.75;15.50;;;;;7.46;74.26;102171.69;5036520;28;47562;-80
2023/01/30 07:30:58;;;;;;;;;23.00;19.50;;;;;7.29;74.09;102148.75;5037383;28;45311;-80
2023/01/30 07:33:24;;;;;;;;;17.75;16.50;;;;;7.40;74.12;102178.88;5053835;28;45356;-78
2023/01/30 07:35:49;;;;;;;;;18.75;17.25;;;;;7.34;74.20;102163.78;5038290;28;46107;-78
2023/01/30 07:38:15;;;;;;;;;21.75;19.00;;;;;7.36;74.01;102153.09;5037060;28;46836;-78
2023/01/30 07:40:40;;;;;;;;;26.75;19.50;;;;;7.32;74.01;102144.25;5037239;28;45270;-80
2023/01/30 07:43:10;;;;;;;;;26.25;20.00;;;;;7.61;73.94;102197.31;5055102;28;45888;-80
2023/01/30 07:45:44;;;;;;;;;21.00;16.00;;;;;7.49;74.24;102181.41;5038595;28;45781;-79
2023/01/30 07:48:11;;;;;;;;;22.25;18.75;;;;;7.46;74.40;102166.34;5054962;28;46514;-78
2023/01/30 07:50:37;;;;;;;;;18.75;17.00;;;;;7.40;74.33;102153.03;5055158;28;45543;-79
2023/01/30 07:53:04;;;;;;;;;23.75;19.25;;;;;7.45;74.60;102161.03;5055443;28;45330;-79
2023/01/30 07:55:29;;;;;;;;;21.50;19.00;;;;;7.65;74.43;102179.50;5036701;28;46025;-78
2023/01/30 07:57:55;;;;;;;;;21.25;19.25;;;;;7.53;74.49;102161.81;5035859;28;48041;-79
2023/01/30 08:00:21;;;;;;;;;21.00;18.75;;;;;7.56;74.91;102181.38;5036531;28;45419;-78
2023/01/30 08:02:46;;;;;;;;;20.25;17.00;;;;;7.53;75.15;102172.50;5036149;28;45372;-79
2023/01/30 08:05:11;;;;;;;;;23.50;19.50;;;;;7.55;75.16;102179.59;5036451;28;46215;-77
2023/01/30 08:07:37;;;;;;;;;18.25;18.25;;;;;7.55;75.41;102184.03;5053597;28;46125;-81
2023/01/30 08:10:03;;;;;;;;;22.25;21.50;;;;;7.58;75.51;102187.56;5054419;28;45350;-77
2023/01/30 08:12:28;;;;;;;;;13.25;13.25;;;;;7.49;75.89;102165.41;5060675;28;45661;-79
2023/01/30 08:14:54;;;;;;;;;23.75;17.25;;;;;7.65;75.47;102192.84;5038946;28;45323;-78
2023/01/30 08:17:19;;;;;;;;;18.75;16.25;;;;;7.56;74.99;102160.03;5068978;28;45313;-77
2023/01/30 08:19:44;;;;;;;;;26.50;18.25;;;;;7.71;75.17;102193.66;5037058;28;45409;-78
2023/01/30 08:22:12;;;;;;;;;20.00;12.75;;;;;7.65;75.29;102198.19;5058987;28;45361;-77
2023/01/30 08:24:38;;;;;;;;;19.75;16.00;;;;;7.64;74.97;102175.06;5066696;28;45899;-78
2023/01/30 08:27:06;;;;;;;;;20.25;16.00;;;;;7.68;75.10;102185.66;5036685;28;46084;-78
2023/01/30 08:29:32;;;;;;;;;23.00;21.00;;;;;7.51;74.80;102152.94;5036266;28;45529;-77
2023/01/30 08:31:59;;;;;;;;;24.00;17.00;;;;;7.82;74.15;102196.22;5052315;28;45460;-77
2023/01/30 08:34:25;;;;;;;;;23.25;18.50;;;;;7.84;74.65;102195.28;5038775;28;45969;-79
2023/01/30 08:36:51;;;;;;;;;20.00;17.50;;;;;7.84;74.33;102202.41;5076003;28;47184;-79
2023/01/30 08:39:16;;;;;;;;;19.75;17.25;;;;;7.84;74.58;102199.72;5087476;28;45357;-78
2023/01/30 08:41:42;;;;;;;;;18.00;17.50;;;;;7.87;74.17;102197.91;5064796;28;44785;-77
2023/01/30 08:44:11;;;;;;;;;21.00;20.75;;;;;7.90;74.41;102197.91;5076893;28;45370;-79
2023/01/30 08:46:37;;;;;;;;;18.75;16.50;;;;;7.99;73.65;102215.59;5071330;28;45446;-78
2023/01/30 08:49:03;;;;;;;;;22.75;19.75;;;;;7.61;73.80;102159.94;5058682;28;45691;-77
2023/01/30 08:51:29;;;;;;;;;15.25;15.25;;;;;7.78;74.11;102200.69;5059378;28;45153;-78
2023/01/30 08:53:54;;;;;;;;;20.75;15.75;;;;;7.70;74.86;102199.88;5058886;28;45591;-78
2023/01/30 08:56:19;;;;;;;;;20.00;16.25;;;;;7.67;74.84;102193.69;5059000;28;46606;-78
2023/01/30 08:58:45;;;;;;;;;18.25;18.25;;;;;7.78;74.58;102199.81;5039303;28;45281;-77
2023/01/30 09:01:11;;;;;;;;;14.50;12.25;;;;;7.89;74.32;102213.94;5058193;28;45412;-77
2023/01/30 09:03:37;;;;;;;;;20.50;12.25;;;;;7.83;73.93;102189.94;5057671;28;45331;-77
2023/01/30 09:06:03;;;;;;;;;22.00;17.75;;;;;7.73;74.09;102173.19;5056840;28;45351;-79
2023/01/30 09:08:28;;;;;;;;;19.25;18.25;;;;;8.05;74.04;102223.53;5038424;28;45382;-78
2023/01/30 09:11:01;;;;;;;;;16.75;16.75;;;;;7.83;73.53;102200.63;5039162;28;45542;-77
2023/01/30 09:13:27;;;;;;;;;23.25;20.25;;;;;8.03;73.95;102228.00;5056610;28;45382;-79
2023/01/30 09:15:52;;;;;;;;;18.75;15.25;;;;;8.08;73.54;102233.31;5038817;28;47825;-78
2023/01/30 09:18:18;;;;;;;;;21.50;19.25;;;;;8.12;73.59;102235.91;5057223;28;45341;-77
2023/01/30 09:20:44;;;;;;;;;23.25;16.50;;;;;8.09;73.66;102219.00;5057372;28;45480;-80
2023/01/30 09:23:09;;;;;;;;;14.75;12.25;;;;;8.04;73.58;102215.53;5070442;28;46490;-77
2023/01/30 09:25:36;;;;;;;;;22.00;22.00;;;;;7.93;74.11;102197.84;5057999;28;46407;-79
2023/01/30 09:28:02;;;;;;;;;23.00;18.00;;;;;8.14;74.18;102219.84;5046881;28;45640;-77
2023/01/30 09:30:27;;;;;;;;;16.75;16.25;;;;;7.87;74.40;102183.69;5060290;28;45405;-77
2023/01/30 09:32:52;;;;;;;;;16.75;13.50;;;;;8.13;74.51;102221.66;5077023;28;45234;-76
2023/01/30 09:35:18;;;;;;;;;16.75;14.25;;;;;7.93;73.96;102187.16;5076886;28;45315;-78
2023/01/30 09:37:48;;;;;;;;;16.75;16.75;;;;;8.14;74.45;102228.75;5051991;28;45438;-77
2023/01/30 09:40:17;;;;;;;;;18.25;15.50;;;;;8.11;74.33;102246.59;5062211;28;45484;-78
2023/01/30 09:42:59;;;;;;;;;20.25;18.75;;;;;8.09;75.09;102235.03;5037112;28;46284;-77
2023/01/30 09:45:51;;;;;;;;;13.75;12.00;;;;;7.97;75.66;102218.28;5072616;28;46229;-78
2023/01/30 09:48:39;;;;;;;;;14.25;13.25;;;;;8.12;74.85;102227.00;5055496;28;45498;-78
2023/01/30 09:51:17;;;;;;;;;19.75;17.75;;;;;8.11;75.27;102231.47;5057327;28;45378;-78
2023/01/30 09:53:54;;;;;;;;;19.00;13.00;;;;;8.18;75.82;102226.91;5057266;28;45464;-78
2023/01/30 09:56:20;;;;;;;;;22.25;17.75;;;;;8.14;75.57;102207.38;5037819;28;47574;-78
2023/01/30 09:58:53;;;;;;;;;17.25;12.00;;;;;8.21;75.88;102241.13;5056348;28;45810;-77
2023/01/30 10:01:57;;;;;;;;;16.75;15.75;;;;;8.26;75.84;102223.25;5056918;28;45227;-79
2023/01/30 10:04:36;;;;;;;;;22.75;20.75;;;;;8.28;76.19;102239.25;5039769;28;47685;-77
2023/01/30 10:07:20;;;;;;;;;29.00;17.00;;;;;8.34;75.78;102245.44;5055866;28;45495;-76
2023/01/30 10:09:45;;;;;;;;;15.50;15.00;;;;;8.35;75.81;102243.66;5037887;28;45735;-79
2023/01/30 10:12:19;;;;;;;;;19.50;16.00;;;;;8.20;75.50;102199.28;5037759;28;45565;-76
2023/01/30 10:15:13;;;;;;;;;15.75;15.75;;;;;8.41;75.80;102229.34;5055220;28;45379;-78
2023/01/30 10:17:42;;;;;;;;;17.25;14.75;;;;;8.57;75.67;102246.94;5044406;28;47570;-77
2023/01/30 10:20:37;;;;;;;;;23.25;18.75;;;;;8.62;75.54;102235.28;5055954;28;45433;-76
2023/01/30 10:23:20;;;;;;;;;15.75;14.25;;;;;8.71;75.73;102250.31;5056990;28;45464;-78
2023/01/30 10:25:54;;;;;;;;;14.25;13.25;;;;;8.73;75.35;102246.72;5076443;28;45435;-78
2023/01/30 10:28:26;;;;;;;;;20.75;16.25;;;;;8.56;75.25;102199.72;5076252;28;46022;-78
2023/01/30 10:30:59;;;;;;;;;18.50;16.50;;;;;8.88;75.33;102247.38;5077426;28;45334;-79
2023/01/30 10:33:39;;;;;;;;;18.25;13.50;;;;;8.94;75.27;102245.47;5071507;27;45571;-78
2023/01/30 10:36:22;;;;;;;;;15.50;14.50;;;;;9.05;74.76;102248.91;5059411;28;46142;-78
2023/01/30 10:38:50;;;;;;;;;20.00;16.00;;;;;9.01;74.68;102241.84;5063199;28;46187;-77
2023/01/30 10:42:05;;;;;;;;;16.75;16.75;;;;;8.88;75.15;102216.16;5039134;28;45603;-77
2023/01/30 10:44:31;;;;;;;;;10.75;10.50;;;;;9.08;74.94;102245.28;5062290;28;45479;-77
2023/01/30 10:47:10;;;;;;;;;18.50;13.75;;;;;9.13;74.84;102222.00;5043069;28;46622;-77
2023/01/30 10:49:59;;;;;;;;;9.50;7.00;;;;;9.14;74.43;102207.72;5056670;28;45468;-77
2023/01/30 10:52:48;;;;;;;;;13.25;12.75;;;;;9.05;74.55;102232.84;5036990;28;46057;-77
2023/01/30 10:55:22;;;;;;;;;11.00;11.00;;;;;9.05;74.67;102223.94;5037921;28;45700;-76
2023/01/30 10:57:57;;;;;;;;;11.75;11.50;;;;;9.13;74.96;102226.47;5037845;28;47392;-77
2023/01/30 11:00:22;;;;;;;;;8.75;8.50;;;;;9.09;75.08;102226.56;5038279;28;46759;-80
2023/01/30 11:02:51;;;;;;;;;12.00;9.25;;;;;9.07;74.79;102235.50;5057060;28;45369;-78
2023/01/30 11:05:47;;;;;;;;;11.00;11.00;;;;;9.08;75.00;102226.56;5055673;28;45481;-77
2023/01/30 11:08:30;;;;;;;;;10.25;8.75;;;;;9.15;74.84;102204.16;5055506;28;45548;-76
2023/01/30 11:10:57;;;;;;;;;12.00;11.00;;;;;9.17;74.45;102199.66;5056429;28;46111;-79
2023/01/30 11:13:29;;;;;;;;;12.75;9.75;;;;;9.17;74.97;102223.75;5056157;28;45280;-78
2023/01/30 11:15:58;;;;;;;;;8.25;7.25;;;;;9.21;74.82;102222.78;5058007;28;45346;-79
2023/01/30 11:18:24;;;;;;;;;10.50;9.50;;;;;9.24;74.54;102221.84;5054773;28;45437;-76
2023/01/30 11:21:09;;;;;;;;;7.00;7.00;;;;;9.27;74.24;102205.75;5055993;28;45570;-78
2023/01/30 11:23:40;;;;;;;;;9.50;9.50;;;;;9.32;73.85;102193.16;5057411;28;45349;-84
2023/01/30 11:26:06;;;;;;;;;12.00;9.50;;;;;9.29;73.93;102180.69;5042481;28;45422;-77
2023/01/30 11:28:42;;;;;;;;;12.00;8.00;;;;;9.46;73.66;102209.84;5075457;28;45354;-79
2023/01/30 11:31:24;;;;;;;;;4.25;2.25;;;;;9.29;74.07;102166.44;5057578;28;45618;-79
2023/01/30 11:34:19;;;;;;;;;12.00;8.00;;;;;9.49;74.04;102199.09;5055137;28;45555;-79
2023/01/30 11:36:47;;;;;;;;;11.00;9.50;;;;;9.54;73.86;102215.94;5066934;28;45320;-79
2023/01/30 11:39:14;;;;;;;;;11.50;8.25;;;;;9.61;73.71;102214.06;5040018;28;46607;-79
2023/01/30 11:41:41;;;;;;;;;13.50;8.75;;;;;9.69;73.70;102214.78;5049077;28;46773;-82
2023/01/30 11:44:09;;;;;;;;;9.00;7.25;;;;;9.67;73.63;102212.16;5068966;28;45507;-79
2023/01/30 11:46:38;;;;;;;;;15.00;9.00;;;;;9.59;73.20;102173.91;5055370;28;45483;-76
2023/01/30 11:49:17;;;;;;;;;12.50;10.25;;;;;9.63;73.57;102174.72;5055114;28;45616;-77
2023/01/30 11:51:46;;;;;;;;;8.50;8.50;;;;;9.77;72.94;102192.31;5054607;28;46130;-78
2023/01/30 11:54:19;;;;;;;;;8.75;8.00;;;;;9.67;72.86;102171.97;5055308;28;45433;-76
2023/01/30 11:56:53;;;;;;;;;5.25;5.25;;;;;9.74;73.56;102184.31;5037416;28;45368;-78
2023/01/30 11:59:36;;;;;;;;;8.00;7.75;;;;;9.77;73.37;102186.06;5065752;28;45781;-75
2023/01/30 12:02:27;;;;;;;;;9.25;9.25;;;;;9.79;73.43;102187.78;5054318;28;46708;-74
2023/01/30 12:05:00;;;;;;;;;11.00;8.75;;;;;9.66;73.84;102175.56;5043209;28;45410;-73
2023/01/30 12:07:28;;;;;;;;;9.75;8.00;;;;;9.72;73.67;102185.25;5064214;28;45387;-72
2023/01/30 12:09:56;;;;;;;;;8.00;8.00;;;;;9.65;73.70;102163.09;5070084;28;45591;-73
2023/01/30 12:12:34;;;;;;;;;8.75;8.75;;;;;9.72;73.73;102182.59;5072209;28;45379;-74
2023/01/30 12:15:00;;;;;;;;;12.00;8.50;;;;;9.73;74.19;102181.69;5055160;28;45357;-73
2023/01/30 12:17:38;;;;;;;;;7.75;7.75;;;;;9.72;73.65;102177.22;5054439;28;45376;-74
2023/01/30 12:20:34;;;;;;;;;7.50;7.00;;;;;9.80;73.82;102170.81;5053614;28;45614;-72
2023/01/30 12:23:20;;;;;;;;;7.00;7.00;;;;;9.65;73.24;102138.97;5067396;28;45204;-73
2023/01/30 12:25:54;;;;;;;;;8.25;7.25;;;;;9.79;73.77;102177.06;5053868;28;45429;-74
2023/01/30 12:28:29;;;;;;;;;9.25;7.25;;;;;9.79;73.96;102170.84;5055922;28;45914;-72
2023/01/30 12:31:11;;;;;;;;;10.25;8.00;;;;;9.82;74.16;102176.13;5057779;28;45480;-73
2023/01/30 12:33:37;;;;;;;;;8.50;7.00;;;;;9.84;73.80;102161.81;5062398;28;45728;-73
2023/01/30 12:36:09;;;;;;;;;9.25;6.50;;;;;9.90;73.63;102165.28;5059923;28;45334;-73
2023/01/30 12:38:56;;;;;;;;;11.25;8.75;;;;;9.93;73.66;102147.34;5054390;28;45358;-73
2023/01/30 12:41:27;;;;;;;;;6.50;6.50;;;;;9.85;74.22;102138.59;5035243;28;45532;-75
2023/01/30 12:44:07;;;;;;;;;8.25;8.25;;;;;9.96;73.65;102149.94;5058779;28;46434;-74
2023/01/30 12:46:33;;;;;;;;;11.00;9.00;;;;;10.04;73.55;102141.75;5053756;28;45415;-73
2023/01/30 12:49:24;;;;;;;;;8.50;8.50;;;;;10.15;73.48;102139.72;5053865;28;45460;-75
2023/01/30 12:51:59;;;;;;;;;9.50;8.00;;;;;10.13;73.44;102134.38;5053520;28;45560;-73
2023/01/30 12:54:34;;;;;;;;;4.00;4.00;;;;;10.11;73.64;102132.69;5053884;28;46393;-73
2023/01/30 12:57:03;;;;;;;;;6.75;6.75;;;;;10.18;73.30;102124.50;5053695;28;45499;-73
2023/01/30 12:59:48;;;;;;;;;8.25;6.75;;;;;10.25;73.17;102119.88;5061095;28;45407;-73
2023/01/30 13:02:32;;;;;;;;;7.00;7.00;;;;;10.23;73.34;102101.16;5053877;28;45389;-72
2023/01/30 13:05:20;;;;;;;;;9.50;7.50;;;;;10.43;72.41;102119.47;5053496;28;45489;-74
2023/01/30 13:08:11;;;;;;;;;6.75;6.75;;;;;10.44;72.16;102128.38;5053592;28;45323;-72
2023/01/30 13:10:50;;;;;;;;;8.75;7.50;;;;;10.47;72.30;102126.50;5063765;28;45481;-75
2023/01/30 13:13:25;;;;;;;;;8.50;6.50;;;;;10.50;72.56;102123.75;5054510;28;45326;-73
2023/01/30 13:16:05;;;;;;;;;8.00;7.25;;;;;10.50;72.43;102106.78;5073184;28;45524;-73
2023/01/30 13:18:59;;;;;;;;;7.25;6.25;;;;;10.49;72.80;102096.97;5073878;28;45455;-73
2023/01/30 13:21:35;;;;;;;;;9.00;9.00;;;;;10.54;72.14;102101.34;5072558;28;45534;-74
2023/01/30 13:24:03;;;;;;;;;9.00;5.50;;;;;10.59;72.27;102103.88;5060668;28;45376;-72
2023/01/30 13:26:34;;;;;;;;;7.00;7.00;;;;;10.54;72.53;102095.09;5035073;28;47333;-74
2023/01/30 13:29:34;;;;;;;;;8.25;7.50;;;;;10.68;72.33;102092.94;5053033;28;45410;-72
2023/01/30 13:32:05;;;;;;;;;11.75;8.00;;;;;10.70;71.80;102076.81;5054927;28;45271;-73
2023/01/30 13:34:37;;;;;;;;;11.25;6.50;;;;;10.79;71.54;102093.56;5056483;28;45504;-74
2023/01/30 13:37:17;;;;;;;;;15.25;7.50;;;;;10.88;71.44;102095.13;5071204;28;45681;-74
2023/01/30 13:39:58;;;;;;;;;7.50;4.50;;;;;10.95;71.19;102091.34;5068197;28;45284;-74
2023/01/30 13:42:44;;;;;;;;;7.25;7.25;;;;;11.01;70.89;102077.78;5056453;28;45377;-75
2023/01/30 13:45:17;;;;;;;;;9.00;8.00;;;;;10.99;70.97;102083.16;5071875;28;45315;-73
2023/01/30 13:47:48;;;;;;;;;8.75;8.00;;;;;10.98;70.71;102084.09;5063346;28;46303;-73
2023/01/30 13:51:01;;;;;;;;;8.00;6.25;;;;;11.02;70.61;102090.28;5069131;28;45743;-72
2023/01/30 13:53:56;;;;;;;;;9.00;9.00;;;;;11.03;70.77;102093.84;4991373;28;45543;-73
2023/01/30 13:56:28;;;;;;;;;7.50;7.50;;;;;10.97;70.83;102098.44;5027566;28;45381;-74
2023/01/30 13:59:04;;;;;;;;;8.50;7.50;;;;;11.01;70.67;102101.91;5076031;28;46192;-73
2023/01/30 14:02:03;;;;;;;;;7.00;7.00;;;;;11.00;71.08;102090.31;5076686;28;45304;-73
2023/01/30 14:04:35;;;;;;;;;7.00;7.00;;;;;10.93;71.50;102094.06;5076099;28;46094;-72
2023/01/30 14:07:21;;;;;;;;;7.00;5.00;;;;;10.90;71.44;102095.94;5075427;28;45875;-72
2023/01/30 14:10:07;;;;;;;;;2.50;2.00;;;;;10.84;71.69;102097.00;5076228;28;46171;-71
2023/01/30 14:12:44;;;;;;;;;10.25;5.75;;;;;10.83;71.66;102102.38;5076346;28;45303;-72
2023/01/30 14:15:12;;;;;;;;;8.50;8.50;;;;;10.76;72.37;102096.31;5076161;28;45327;-74
2023/01/30 14:17:37;;;;;;;;;7.00;5.25;;;;;10.76;72.08;102098.09;5057584;28;45441;-71
2023/01/30 14:20:15;;;;;;;;;9.00;7.00;;;;;10.76;71.81;102122.25;5075486;28;45973;-73
2023/01/30 14:22:49;;;;;;;;;8.00;7.00;;;;;10.73;72.21;102125.88;5074881;28;45554;-69
2023/01/30 14:25:23;;;;;;;;;7.00;5.75;;;;;10.74;71.79;102124.06;5073591;28;45425;-72
2023/01/30 14:27:54;;;;;;;;;7.25;7.25;;;;;10.63;72.60;102114.47;5074818;28;45447;-72
2023/01/30 14:30:38;;;;;;;;;8.25;7.75;;;;;10.72;72.51;102118.75;5075959;28;46706;-72
2023/01/30 14:33:23;;;;;;;;;7.00;7.00;;;;;10.67;73.02;102126.03;5056841;28;45818;-72
2023/01/30 14:36:01;;;;;;;;;6.75;6.75;;;;;10.74;72.63;102134.81;5071483;28;45443;-72
2023/01/30 14:38:30;;;;;;;;;7.00;7.00;;;;;10.75;72.10;102137.47;5037574;28;46204;-73
2023/01/30 14:41:01;;;;;;;;;7.25;7.00;;;;;10.78;72.31;102141.88;5054589;28;46189;-72
2023/01/30 14:43:40;;;;;;;;;8.75;8.75;;;;;10.79;72.51;102140.97;5056377;28;45640;-73
2023/01/30 14:46:40;;;;;;;;;10.50;9.00;;;;;10.77;72.70;102137.44;5055887;28;45370;-72
2023/01/30 14:49:25;;;;;;;;;10.00;8.00;;;;;10.79;72.92;102135.59;5055005;28;45396;-71
2023/01/30 14:51:54;;;;;;;;;10.00;7.50;;;;;10.78;73.14;102136.50;5054821;28;46672;-73
2023/01/30 14:54:25;;;;;;;;;9.50;7.25;;;;;10.72;72.65;102129.47;5037081;28;45338;-72
2023/01/30 14:57:16;;;;;;;;;7.75;7.00;;;;;10.83;72.63;102143.50;5054526;28;45516;-77
2023/01/30 14:59:44;;;;;;;;;8.25;7.00;;;;;10.91;72.27;102143.31;5054876;28;45397;-72
2023/01/30 15:02:12;;;;;;;;;5.00;3.75;;;;;10.92;72.61;102145.09;5055237;28;46117;-73
2023/01/30 15:05:05;;;;;;;;;8.00;8.00;;;;;10.89;72.68;102143.34;5055238;28;45284;-72
2023/01/30 15:07:43;;;;;;;;;10.00;9.00;;;;;10.93;72.02;102149.53;5037048;28;45455;-72
2023/01/30 15:10:37;;;;;;;;;9.75;7.00;;;;;10.97;72.15;102146.72;5054643;28;46167;-73
2023/01/30 15:13:37;;;;;;;;;5.00;5.00;;;;;10.96;72.45;102145.00;5057254;28;46303;-71
2023/01/30 15:16:27;;;;;;;;;9.00;7.50;;;;;10.91;72.45;102146.88;5055146;28;45443;-72
2023/01/30 15:19:14;;;;;;;;;9.00;7.25;;;;;10.98;71.94;102156.53;5054526;28;45486;-75
2023/01/30 15:21:58;;;;;;;;;15.00;9.25;;;;;11.03;71.97;102161.81;5061555;28;45681;-74
2023/01/30 15:24:47;;;;;;;;;12.50;10.00;;;;;11.07;71.94;102168.84;5052939;28;46326;-72
2023/01/30 15:27:26;;;;;;;;;6.25;6.00;;;;;11.14;71.75;102165.13;5040529;28;45915;-72
2023/01/30 15:30:04;;;;;;;;;7.00;7.00;;;;;11.23;71.70;102174.69;5055175;28;45794;-71
2023/01/30 15:32:32;;;;;;;;;10.50;7.75;;;;;11.27;71.47;102171.91;5054401;28;45828;-72
2023/01/30 15:35:19;;;;;;;;;8.75;8.75;;;;;11.29;70.80;102177.25;5054240;28;45919;-72
2023/01/30 15:37:44;;;;;;;;;6.75;6.75;;;;;11.35;70.32;102190.50;5054159;28;45299;-73
2023/01/30 15:40:19;;;;;;;;;7.50;6.75;;;;;11.38;70.62;102199.38;5054668;28;45404;-74
2023/01/30 15:42:45;;;;;;;;;9.25;7.75;;;;;11.42;70.24;102200.16;5061365;28;45293;-72
2023/01/30 15:45:24;;;;;;;;;8.75;7.50;;;;;11.46;70.17;102199.16;5058820;28;45396;-71
2023/01/30 15:47:52;;;;;;;;;6.75;4.50;;;;;11.51;69.65;102201.72;5055050;28;45325;-72
2023/01/30 15:50:17;;;;;;;;;9.50;8.50;;;;;11.52;69.16;102192.75;5054571;28;45362;-74
2023/01/30 15:52:47;;;;;;;;;9.75;8.50;;;;;11.30;68.99;102165.59;5054974;28;45244;-72
2023/01/30 15:55:15;;;;;;;;;8.25;8.25;;;;;11.52;68.52;102214.22;5056225;28;46137;-70
2023/01/30 15:57:44;;;;;;;;;8.50;6.50;;;;;11.50;67.61;102211.59;5074441;28;45350;-69
2023/01/30 16:00:23;;;;;;;;;10.25;7.75;;;;;11.49;67.61;102220.56;5057809;28;45181;-70
2023/01/30 16:02:48;;;;;;;;;7.50;7.50;;;;;11.49;68.01;102204.44;5036249;28;45599;-70
2023/01/30 16:05:20;;;;;;;;;4.50;4.50;;;;;11.52;67.40;102208.84;5054034;28;45615;-71
2023/01/30 16:07:48;;;;;;;;;9.75;6.25;;;;;11.49;67.67;102198.19;5054356;28;45399;-75
2023/01/30 16:10:25;;;;;;;;;4.50;4.50;;;;;11.54;66.88;102207.91;5054316;28;45374;-76
2023/01/30 16:12:54;;;;;;;;;4.25;4.25;;;;;11.43;66.58;102203.72;5054088;28;45422;-75
2023/01/30 16:15:33;;;;;;;;;4.75;4.75;;;;;11.52;66.43;102216.91;5054787;28;45352;-75
2023/01/30 16:18:03;;;;;;;;;4.50;4.50;;;;;11.53;66.26;102210.63;5054414;28;45405;-75
2023/01/30 16:20:34;;;;;;;;;7.25;4.25;;;;;11.54;66.74;102217.78;5054333;28;45470;-74
2023/01/30 16:22:59;;;;;;;;;6.25;5.00;;;;;11.48;66.15;102202.72;5067961;28;45284;-74
2023/01/30 16:25:28;;;;;;;;;6.50;5.25;;;;;11.57;65.89;102220.38;5065093;28;45298;-73
2023/01/30 16:27:54;;;;;;;;;6.75;4.75;;;;;11.53;65.51;102218.69;5075011;28;45500;-73
2023/01/30 16:30:23;;;;;;;;;3.00;3.00;;;;;11.53;64.80;102218.69;5075795;28;45409;-71
2023/01/30 16:32:52;;;;;;;;;3.50;3.50;;;;;11.46;64.54;102236.78;5074743;28;45574;-70
2023/01/30 16:35:23;;;;;;;;;4.25;4.25;;;;;11.45;64.38;102236.81;5074585;28;46240;-69
2023/01/30 16:37:50;;;;;;;;;6.25;5.00;;;;;11.37;64.38;102239.69;5053813;28;45452;-71
2023/01/30 16:40:21;;;;;;;;;5.75;3.00;;;;;11.42;64.38;102251.19;5063119;28;45433;-71
2023/01/30 16:42:59;;;;;;;;;6.25;6.25;;;;;11.42;64.78;102258.34;5074207;28;45634;-71
2023/01/30 16:45:33;;;;;;;;;4.75;4.50;;;;;11.44;64.61;102261.88;5072070;28;45318;-72
2023/01/30 16:48:33;;;;;;;;;7.25;4.00;;;;;11.43;63.47;102265.50;5053455;28;45511;-72
2023/01/30 16:50:59;;;;;;;;;7.00;4.50;;;;;11.44;62.89;102276.19;5064738;28;46324;-73
2023/01/30 16:53:28;;;;;;;;;2.00;2.00;;;;;11.38;61.68;102277.25;5070885;28;45345;-74
2023/01/30 16:55:57;;;;;;;;;3.00;2.00;;;;;11.42;61.36;102287.91;5065767;28;45504;-70
2023/01/30 16:58:31;;;;;;;;;2.00;1.75;;;;;11.38;60.90;102288.00;5068506;28;45349;-73
2023/01/30 17:00:59;;;;;;;;;2.00;2.00;;;;;11.36;60.34;102287.13;5074014;28;45354;-71
2023/01/30 17:03:30;;;;;;;;;2.00;2.00;;;;;11.33;60.68;102297.94;5073735;28;45572;-72
2023/01/30 17:05:57;;;;;;;;;3.00;3.00;;;;;11.31;60.48;102302.44;5074865;28;46026;-72
2023/01/30 17:08:31;;;;;;;;;3.00;3.00;;;;;11.32;60.45;102309.59;5076240;28;45503;-72
2023/01/30 17:11:02;;;;;;;;;5.25;3.00;;;;;11.19;60.16;102301.88;5068649;28;45349;-72
2023/01/30 17:13:32;;;;;;;;;4.00;2.75;;;;;11.31;60.03;102318.56;5057468;28;45486;-72
2023/01/30 17:16:16;;;;;;;;;2.00;2.00;;;;;11.30;59.20;102326.69;5056577;28;46241;-72
2023/01/30 17:18:44;;;;;;;;;4.25;2.00;;;;;11.27;59.66;102329.44;5056698;28;45386;-70